createdAt,value
2023-05-13T00:00:49.355Z,16.66
2023-05-13T00:01:50.137Z,16.69
2023-05-13T00:02:49.488Z,16.76
2023-05-13T00:03:49.510Z,16.92
2023-05-13T00:04:49.452Z,16.92
2023-05-13T00:05:49.517Z,17.02
2023-05-13T00:06:49.527Z,17.10
2023-05-13T00:07:49.566Z,17.16
2023-05-13T00:08:49.571Z,17.20
2023-05-13T00:09:49.620Z,17.22
2023-05-13T00:10:49.692Z,17.26
2023-05-13T00:11:49.685Z,17.19
2023-05-13T00:12:49.721Z,17.17
2023-05-13T00:13:49.738Z,17.27
2023-05-13T00:14:49.797Z,17.31
2023-05-13T00:15:49.857Z,17.10
2023-05-13T00:16:49.874Z,17.25
2023-05-13T00:17:49.865Z,17.27
2023-05-13T00:18:49.910Z,17.26
2023-05-13T00:19:49.846Z,17.20
2023-05-13T00:20:49.857Z,17.19
2023-05-13T00:21:49.914Z,17.07
2023-05-13T00:22:49.902Z,17.12
2023-05-13T00:23:49.924Z,16.93
2023-05-13T00:24:49.918Z,16.86
2023-05-13T00:25:49.938Z,16.92
2023-05-13T00:26:49.930Z,16.92
2023-05-13T00:27:49.953Z,16.89
2023-05-13T00:28:49.944Z,17.02
2023-05-13T00:29:49.945Z,17.03
2023-05-13T00:30:49.948Z,17.07
2023-05-13T00:31:49.971Z,17.13
2023-05-13T00:32:50.026Z,17.19
2023-05-13T00:33:49.938Z,17.20
2023-05-13T00:34:49.950Z,17.25
2023-05-13T00:35:49.986Z,17.30
2023-05-13T00:36:50.004Z,17.25
2023-05-13T00:37:50.066Z,17.30
2023-05-13T00:38:50.055Z,17.20
2023-05-13T00:39:50.061Z,17.13
2023-05-13T00:40:50.088Z,17.07
2023-05-13T00:41:50.128Z,17.12
2023-05-13T00:42:50.178Z,17.19
2023-05-13T00:43:50.198Z,17.10
2023-05-13T00:44:50.201Z,17.20
2023-05-13T00:45:50.247Z,17.25
2023-05-13T00:46:50.278Z,17.25
2023-05-13T00:47:50.373Z,17.26
2023-05-13T00:48:50.359Z,17.33
2023-05-13T00:49:50.382Z,17.19
2023-05-13T00:50:50.410Z,17.29
2023-05-13T00:51:50.448Z,17.30
2023-05-13T00:52:50.451Z,17.34
2023-05-13T00:53:50.479Z,17.36
2023-05-13T00:54:50.487Z,17.44
2023-05-13T00:55:50.518Z,17.44
2023-05-13T00:56:50.534Z,17.43
2023-05-13T00:57:50.568Z,17.34
2023-05-13T00:58:50.624Z,17.37
2023-05-13T00:59:50.626Z,17.26
2023-05-13T01:00:50.670Z,16.80
2023-05-13T01:01:50.645Z,16.75
2023-05-13T01:02:50.777Z,16.62
2023-05-13T01:03:50.715Z,16.61
2023-05-13T01:04:50.759Z,16.65
2023-05-13T01:05:50.764Z,16.65
2023-05-13T01:06:50.823Z,16.57
2023-05-13T01:07:51.182Z,16.66
2023-05-13T01:08:50.858Z,16.71
2023-05-13T01:09:50.886Z,16.75
2023-05-13T01:10:50.904Z,16.78
2023-05-13T01:11:50.959Z,16.79
2023-05-13T01:12:51.198Z,16.55
2023-05-13T01:13:51.006Z,16.44
2023-05-13T01:14:51.084Z,16.08
2023-05-13T01:15:51.074Z,16.27
2023-05-13T01:16:51.175Z,16.35
2023-05-13T01:17:51.710Z,16.25
2023-05-13T01:18:51.732Z,16.27
2023-05-13T01:19:51.234Z,16.29
2023-05-13T01:20:51.286Z,16.34
2023-05-13T01:21:51.309Z,16.32
2023-05-13T01:22:51.360Z,15.93
2023-05-13T01:23:51.326Z,16.18
2023-05-13T01:24:51.364Z,16.18
2023-05-13T01:25:51.398Z,16.03
2023-05-13T01:26:51.437Z,16.24
2023-05-13T01:27:51.499Z,16.31
2023-05-13T01:28:51.506Z,16.31
2023-05-13T01:29:51.474Z,16.40
2023-05-13T01:30:51.516Z,16.48
2023-05-13T01:31:51.483Z,16.52
2023-05-13T01:32:51.539Z,16.52
2023-05-13T01:33:51.482Z,16.40
2023-05-13T01:34:51.573Z,16.58
2023-05-13T01:35:51.611Z,16.64
2023-05-13T01:36:51.675Z,16.69
2023-05-13T01:37:51.706Z,16.58
2023-05-13T01:38:51.694Z,16.58
2023-05-13T01:39:51.765Z,16.54
2023-05-13T01:40:51.769Z,16.55
2023-05-13T01:41:51.775Z,16.59
2023-05-13T01:42:51.865Z,16.55
2023-05-13T01:43:51.865Z,16.64
2023-05-13T01:44:51.884Z,16.64
2023-05-13T01:45:51.905Z,16.47
2023-05-13T01:46:51.977Z,16.40
2023-05-13T01:47:52.028Z,16.40
2023-05-13T01:48:51.982Z,16.31
2023-05-13T01:50:31.902Z,16.31
2023-05-13T01:51:31.892Z,16.20
2023-05-13T01:52:31.876Z,16.18
2023-05-13T01:53:31.893Z,16.11
2023-05-13T01:54:31.860Z,16.32
2023-05-13T01:55:31.864Z,15.87
2023-05-13T01:56:31.859Z,15.89
2023-05-13T01:57:31.851Z,15.84
2023-05-13T01:58:31.883Z,15.89
2023-05-13T01:59:31.840Z,15.74
2023-05-13T02:00:31.841Z,15.92
2023-05-13T02:01:31.846Z,15.87
2023-05-13T02:02:31.839Z,16.00
2023-05-13T02:03:31.877Z,15.79
2023-05-13T02:04:31.811Z,15.96
2023-05-13T02:05:31.785Z,16.14
2023-05-13T02:06:31.780Z,16.10
2023-05-13T02:07:31.778Z,16.20
2023-05-13T02:08:31.780Z,16.24
2023-05-13T02:09:31.793Z,16.37
2023-05-13T02:10:31.758Z,16.45
2023-05-13T02:11:31.751Z,16.47
2023-05-13T02:12:31.760Z,16.52
2023-05-13T02:13:31.763Z,16.55
2023-05-13T02:14:31.745Z,16.64
2023-05-13T02:15:31.720Z,16.61
2023-05-13T02:16:31.770Z,16.68
2023-05-13T02:17:31.778Z,16.69
2023-05-13T02:18:31.784Z,16.61
2023-05-13T02:19:31.713Z,16.48
2023-05-13T02:20:31.723Z,16.48
2023-05-13T02:21:31.697Z,16.47
2023-05-13T02:22:31.730Z,16.57
2023-05-13T02:23:31.697Z,16.57
2023-05-13T02:24:31.697Z,16.65
2023-05-13T02:25:31.674Z,16.62
2023-05-13T02:26:31.693Z,16.62
2023-05-13T02:27:31.676Z,16.59
2023-05-13T02:28:31.679Z,16.47
2023-05-13T02:29:31.665Z,16.29
2023-05-13T02:30:31.670Z,16.43
2023-05-13T02:31:31.654Z,16.47
2023-05-13T02:32:31.762Z,16.55
2023-05-13T02:33:31.639Z,16.62
2023-05-13T02:34:31.664Z,16.68
2023-05-13T02:35:31.620Z,16.75
2023-05-13T02:36:31.619Z,16.78
2023-05-13T02:37:31.623Z,16.80
2023-05-13T02:38:31.601Z,16.82
2023-05-13T02:39:31.611Z,16.83
2023-05-13T02:40:31.595Z,16.86
2023-05-13T02:41:31.566Z,16.86
2023-05-13T02:42:31.609Z,16.86
2023-05-13T02:43:31.611Z,16.76
2023-05-13T02:44:31.589Z,16.72
2023-05-13T02:45:31.567Z,16.65
2023-05-13T02:46:31.682Z,16.25
2023-05-13T02:47:31.636Z,16.31
2023-05-13T02:48:31.540Z,16.38
2023-05-13T02:49:31.558Z,16.40
2023-05-13T02:50:31.532Z,15.80
2023-05-13T02:51:31.517Z,15.98
2023-05-13T02:52:31.513Z,16.10
2023-05-13T02:53:31.526Z,16.08
2023-05-13T02:54:31.508Z,16.06
2023-05-13T02:55:31.568Z,15.82
2023-05-13T02:56:31.493Z,15.55
2023-05-13T02:57:31.520Z,15.57
2023-05-13T02:58:31.487Z,15.53
2023-05-13T02:59:31.478Z,15.45
2023-05-13T03:00:31.466Z,15.31
2023-05-13T03:01:31.555Z,15.24
2023-05-13T03:02:31.517Z,15.33
2023-05-13T03:03:31.559Z,15.09
2023-05-13T03:04:31.433Z,15.05
2023-05-13T03:05:31.482Z,15.18
2023-05-13T03:06:31.519Z,15.17
2023-05-13T03:07:31.544Z,15.25
2023-05-13T03:08:31.563Z,15.18
2023-05-13T03:09:31.605Z,15.38
2023-05-13T03:10:31.623Z,15.57
2023-05-13T03:11:31.665Z,15.70
2023-05-13T03:12:31.727Z,15.87
2023-05-13T03:13:31.761Z,16.00
2023-05-13T03:14:31.781Z,16.08
2023-05-13T03:15:31.851Z,16.17
2023-05-13T03:16:31.969Z,16.17
2023-05-13T03:17:31.938Z,16.23
2023-05-13T03:18:31.996Z,16.20
2023-05-13T03:19:31.999Z,16.27
2023-05-13T03:20:32.039Z,16.27
2023-05-13T03:21:32.113Z,16.32
2023-05-13T03:22:32.165Z,16.27
2023-05-13T03:23:32.204Z,16.40
2023-05-13T03:24:32.252Z,16.38
2023-05-13T03:25:32.279Z,16.45
2023-05-13T03:26:32.297Z,16.41
2023-05-13T03:27:32.316Z,16.40
2023-05-13T03:28:32.396Z,16.43
2023-05-13T03:29:32.417Z,16.40
2023-05-13T03:30:32.484Z,16.31
2023-05-13T03:31:32.564Z,16.37
2023-05-13T03:32:32.607Z,16.40
2023-05-13T03:33:32.591Z,16.47
2023-05-13T03:34:32.612Z,16.45
2023-05-13T03:35:32.624Z,16.37
2023-05-13T03:36:32.654Z,16.40
2023-05-13T03:37:32.659Z,16.41
2023-05-13T03:38:32.721Z,16.50
2023-05-13T03:39:32.762Z,16.43
2023-05-13T03:40:32.806Z,16.44
2023-05-13T03:41:32.856Z,16.44
2023-05-13T03:42:32.911Z,16.43
2023-05-13T03:43:32.967Z,16.40
2023-05-13T03:44:33.019Z,16.45
2023-05-13T03:45:33.075Z,16.41
2023-05-13T03:46:33.170Z,16.52
2023-05-13T03:47:33.218Z,16.57
2023-05-13T03:48:33.238Z,16.51
2023-05-13T03:49:33.296Z,16.50
2023-05-13T03:50:33.345Z,16.43
2023-05-13T03:51:33.394Z,16.45
2023-05-13T03:52:33.469Z,16.44
2023-05-13T03:53:33.527Z,16.52
2023-05-13T03:54:33.584Z,16.55
2023-05-13T03:55:33.624Z,16.58
2023-05-13T03:56:33.714Z,16.51
2023-05-13T03:57:33.751Z,16.43
2023-05-13T03:58:33.781Z,16.47
2023-05-13T03:59:33.792Z,16.38
2023-05-13T04:00:33.860Z,16.32
2023-05-13T04:01:33.892Z,16.37
2023-05-13T04:02:34.055Z,16.45
2023-05-13T04:03:34.004Z,16.34
2023-05-13T04:04:34.065Z,16.40
2023-05-13T04:05:34.129Z,16.47
2023-05-13T04:06:34.134Z,16.51
2023-05-13T04:07:34.185Z,16.43
2023-05-13T04:08:34.264Z,16.44
2023-05-13T04:09:34.310Z,16.55
2023-05-13T04:10:34.354Z,16.59
2023-05-13T04:11:34.398Z,16.61
2023-05-13T04:12:34.432Z,16.45
2023-05-13T04:13:34.503Z,16.51
2023-05-13T04:14:34.515Z,16.54
2023-05-13T04:15:34.589Z,16.62
2023-05-13T04:16:34.624Z,16.57
2023-05-13T04:17:34.630Z,16.52
2023-05-13T04:18:34.716Z,16.55
2023-05-13T04:19:34.682Z,16.52
2023-05-13T04:20:34.740Z,16.55
2023-05-13T04:21:34.743Z,16.65
2023-05-13T04:22:34.796Z,16.64
2023-05-13T04:23:34.851Z,16.71
2023-05-13T04:24:34.850Z,16.74
2023-05-13T04:25:34.877Z,16.79
2023-05-13T04:26:34.921Z,16.78
2023-05-13T04:27:34.977Z,16.64
2023-05-13T04:28:35.001Z,16.72
2023-05-13T04:29:35.061Z,16.61
2023-05-13T04:30:35.098Z,16.66
2023-05-13T04:31:35.154Z,16.66
2023-05-13T04:32:35.186Z,16.72
2023-05-13T04:33:35.235Z,16.75
2023-05-13T04:34:35.268Z,16.71
2023-05-13T04:35:35.287Z,16.74
2023-05-13T04:36:35.348Z,16.75
2023-05-13T04:37:35.354Z,16.62
2023-05-13T04:38:35.378Z,16.71
2023-05-13T04:39:35.420Z,16.65
2023-05-13T04:40:35.448Z,16.76
2023-05-13T04:41:35.494Z,16.76
2023-05-13T04:42:35.523Z,16.80
2023-05-13T04:43:35.520Z,16.68
2023-05-13T04:44:35.547Z,16.78
2023-05-13T04:45:35.599Z,16.83
2023-05-13T04:46:35.684Z,16.89
2023-05-13T04:47:35.791Z,16.82
2023-05-13T04:48:35.733Z,16.76
2023-05-13T04:49:35.794Z,16.85
2023-05-13T04:50:35.803Z,16.93
2023-05-13T04:51:35.845Z,16.92
2023-05-13T04:52:35.873Z,16.79
2023-05-13T04:53:35.881Z,16.79
2023-05-13T04:54:35.933Z,16.90
2023-05-13T04:55:35.952Z,16.85
2023-05-13T04:56:35.983Z,16.90
2023-05-13T04:57:36.007Z,16.90
2023-05-13T04:58:36.006Z,16.99
2023-05-13T04:59:36.055Z,17.03
2023-05-13T05:00:36.101Z,17.06
2023-05-13T05:01:36.218Z,17.12
2023-05-13T05:02:36.205Z,16.95
2023-05-13T05:03:36.313Z,17.10
2023-05-13T05:04:36.246Z,17.03
2023-05-13T05:05:36.295Z,17.07
2023-05-13T05:06:36.307Z,17.16
2023-05-13T05:07:36.309Z,17.20
2023-05-13T05:08:36.350Z,17.19
2023-05-13T05:09:36.377Z,17.20
2023-05-13T05:10:36.392Z,17.23
2023-05-13T05:11:36.442Z,17.27
2023-05-13T05:12:36.467Z,17.33
2023-05-13T05:13:36.465Z,17.36
2023-05-13T05:14:36.484Z,17.43
2023-05-13T05:15:36.524Z,17.44
2023-05-13T05:16:36.560Z,17.49
2023-05-13T05:17:36.747Z,17.54
2023-05-13T05:18:36.764Z,17.54
2023-05-13T05:19:36.727Z,17.61
2023-05-13T05:20:36.725Z,17.63
2023-05-13T05:21:36.737Z,17.57
2023-05-13T05:22:36.809Z,17.63
2023-05-13T05:23:36.827Z,17.64
2023-05-13T05:24:36.843Z,17.70
2023-05-13T05:25:36.878Z,17.74
2023-05-13T05:26:36.903Z,17.77
2023-05-13T05:27:36.913Z,17.80
2023-05-13T05:28:36.938Z,17.82
2023-05-13T05:29:36.961Z,17.82
2023-05-13T05:30:36.951Z,17.84
2023-05-13T05:31:37.008Z,17.87
2023-05-13T05:32:37.015Z,17.90
2023-05-13T05:33:36.991Z,17.90
2023-05-13T05:34:37.025Z,17.81
2023-05-13T05:35:37.018Z,17.85
2023-05-13T05:36:38.378Z,17.90
2023-05-13T05:37:37.004Z,17.98
2023-05-13T05:38:37.037Z,18.07
2023-05-13T05:39:37.056Z,18.09
2023-05-13T05:40:37.089Z,18.13
2023-05-13T05:41:37.072Z,18.18
2023-05-13T05:42:37.071Z,18.24
2023-05-13T05:43:37.079Z,18.27
2023-05-13T05:44:37.112Z,18.36
2023-05-13T05:45:37.239Z,18.38
2023-05-13T05:46:37.184Z,18.27
2023-05-13T05:47:37.255Z,18.38
2023-05-13T05:48:37.260Z,18.39
2023-05-13T05:49:37.312Z,18.42
2023-05-13T05:50:37.310Z,18.41
2023-05-13T05:51:37.378Z,18.43
2023-05-13T05:52:37.382Z,18.49
2023-05-13T05:53:37.406Z,18.50
2023-05-13T05:54:37.393Z,18.53
2023-05-13T05:55:37.448Z,18.43
2023-05-13T05:56:37.453Z,18.36
2023-05-13T05:57:37.463Z,18.32
2023-05-13T05:58:37.488Z,18.38
2023-05-13T05:59:37.473Z,18.36
2023-05-13T06:00:37.512Z,18.27
2023-05-13T06:01:37.548Z,18.24
2023-05-13T06:02:37.746Z,18.21
2023-05-13T06:03:37.831Z,18.24
2023-05-13T06:04:37.770Z,18.31
2023-05-13T06:05:37.762Z,18.33
2023-05-13T06:06:37.923Z,18.33
2023-05-13T06:07:37.881Z,18.41
2023-05-13T06:08:37.900Z,18.46
2023-05-13T06:09:37.885Z,18.53
2023-05-13T06:10:37.894Z,18.49
2023-05-13T06:11:37.909Z,18.53
2023-05-13T06:12:37.962Z,18.58
2023-05-13T06:13:37.979Z,18.60
2023-05-13T06:14:38.024Z,18.63
2023-05-13T06:15:38.082Z,18.63
2023-05-13T06:16:38.087Z,18.50
2023-05-13T06:17:38.200Z,18.36
2023-05-13T06:18:38.142Z,18.41
2023-05-13T06:19:38.153Z,18.42
2023-05-13T06:20:38.127Z,18.48
2023-05-13T06:21:38.179Z,18.55
2023-05-13T06:22:38.179Z,18.59
2023-05-13T06:23:38.192Z,18.62
2023-05-13T06:24:38.180Z,18.55
2023-05-13T06:25:38.208Z,18.62
2023-05-13T06:26:38.218Z,18.66
2023-05-13T06:27:38.236Z,18.70
2023-05-13T06:28:38.271Z,18.67
2023-05-13T06:29:38.292Z,18.70
2023-05-13T06:30:38.315Z,18.73
2023-05-13T06:31:38.336Z,18.76
2023-05-13T06:32:41.008Z,18.80
2023-05-13T06:33:39.345Z,18.82
2023-05-13T06:34:38.341Z,18.86
2023-05-13T06:35:38.338Z,18.84
2023-05-13T06:36:38.323Z,18.89
2023-05-13T06:37:38.316Z,18.91
2023-05-13T06:38:38.314Z,18.91
2023-05-13T06:39:38.292Z,18.94
2023-05-13T06:40:38.293Z,18.97
2023-05-13T06:41:38.291Z,19.03
2023-05-13T06:42:38.295Z,19.01
2023-05-13T06:43:38.279Z,19.04
2023-05-13T06:44:38.306Z,19.07
2023-05-13T06:45:38.264Z,19.06
2023-05-13T06:46:38.300Z,19.07
2023-05-13T06:47:38.291Z,19.06
2023-05-13T06:48:38.234Z,18.97
2023-05-13T06:49:38.243Z,18.86
2023-05-13T06:50:38.221Z,18.96
2023-05-13T06:51:38.247Z,18.99
2023-05-13T06:52:39.397Z,19.03
2023-05-13T06:53:38.305Z,19.09
2023-05-13T06:54:38.400Z,19.11
2023-05-13T06:55:38.417Z,18.87
2023-05-13T06:56:38.493Z,19.06
2023-05-13T06:57:42.775Z,19.09
2023-05-13T06:58:38.523Z,19.11
2023-05-13T06:59:38.526Z,19.17
2023-05-13T07:00:38.527Z,19.23
2023-05-13T07:01:38.613Z,19.15
2023-05-13T07:02:38.516Z,19.21
2023-05-13T07:03:38.567Z,19.03
2023-05-13T07:04:38.470Z,18.80
2023-05-13T07:05:38.480Z,18.86
2023-05-13T07:06:38.455Z,18.96
2023-05-13T07:07:38.472Z,19.00
2023-05-13T07:08:38.467Z,18.94
2023-05-13T07:09:38.470Z,19.07
2023-05-13T07:10:38.414Z,19.11
2023-05-13T07:11:38.429Z,19.17
2023-05-13T07:12:38.406Z,19.23
2023-05-13T07:13:39.246Z,19.31
2023-05-13T07:14:38.551Z,19.25
2023-05-13T07:15:38.405Z,19.04
2023-05-13T07:16:38.509Z,19.17
2023-05-13T07:17:38.519Z,19.21
2023-05-13T07:18:38.408Z,19.28
2023-05-13T07:19:38.369Z,19.37
2023-05-13T07:20:38.351Z,19.44
2023-05-13T07:21:38.392Z,19.51
2023-05-13T07:22:38.439Z,19.57
2023-05-13T07:23:38.469Z,19.60
2023-05-13T07:24:38.577Z,19.65
2023-05-13T07:25:38.587Z,19.65
2023-05-13T07:26:38.582Z,19.68
2023-05-13T07:27:38.638Z,19.65
2023-05-13T07:28:38.670Z,19.61
2023-05-13T07:29:38.714Z,19.52
2023-05-13T07:30:38.756Z,19.61
2023-05-13T07:31:38.768Z,19.21
2023-05-13T07:32:38.808Z,19.27
2023-05-13T07:33:38.809Z,19.34
2023-05-13T07:34:38.883Z,19.07
2023-05-13T07:35:38.939Z,19.20
2023-05-13T07:36:38.954Z,19.27
2023-05-13T07:37:38.984Z,19.23
2023-05-13T07:38:38.993Z,19.28
2023-05-13T07:39:39.020Z,19.25
2023-05-13T07:40:39.030Z,19.17
2023-05-13T07:41:39.091Z,19.13
2023-05-13T07:42:39.140Z,19.04
2023-05-13T07:43:39.143Z,19.09
2023-05-13T07:44:39.164Z,19.15
2023-05-13T07:45:39.178Z,18.87
2023-05-13T07:46:39.193Z,18.91
2023-05-13T07:47:39.242Z,19.04
2023-05-13T07:48:39.225Z,19.17
2023-05-13T07:49:39.244Z,19.11
2023-05-13T07:50:39.283Z,19.23
2023-05-13T07:51:39.355Z,19.28
2023-05-13T07:52:39.353Z,19.35
2023-05-13T07:53:39.424Z,19.32
2023-05-13T07:54:39.447Z,19.30
2023-05-13T07:55:39.493Z,19.20
2023-05-13T07:56:39.527Z,19.27
2023-05-13T07:57:39.565Z,19.23
2023-05-13T07:58:39.618Z,19.25
2023-05-13T07:59:39.643Z,19.31
2023-05-13T08:00:39.718Z,18.91
2023-05-13T08:01:39.734Z,19.15
2023-05-13T08:02:39.865Z,19.00
2023-05-13T08:03:39.959Z,18.91
2023-05-13T08:04:39.881Z,18.77
2023-05-13T08:05:39.857Z,19.06
2023-05-13T08:06:40.273Z,19.13
2023-05-13T08:07:39.946Z,19.21
2023-05-13T08:08:39.969Z,19.34
2023-05-13T08:09:40.038Z,19.17
2023-05-13T08:10:40.044Z,19.10
2023-05-13T08:11:40.121Z,19.00
2023-05-13T08:12:40.134Z,19.13
2023-05-13T08:13:40.208Z,19.18
2023-05-13T08:14:40.232Z,19.03
2023-05-13T08:15:40.290Z,19.24
2023-05-13T08:16:40.328Z,19.04
2023-05-13T08:17:40.428Z,19.15
2023-05-13T08:18:40.462Z,19.24
2023-05-13T08:19:40.476Z,19.01
2023-05-13T08:20:40.494Z,19.03
2023-05-13T08:21:40.556Z,19.18
2023-05-13T08:22:40.586Z,18.91
2023-05-13T08:23:44.871Z,18.90
2023-05-13T08:24:41.640Z,18.93
2023-05-13T08:25:40.684Z,19.09
2023-05-13T08:26:40.619Z,18.63
2023-05-13T08:27:40.602Z,19.04
2023-05-13T08:28:40.949Z,19.09
2023-05-13T08:29:40.606Z,18.79
2023-05-13T08:30:40.584Z,18.60
2023-05-13T08:31:40.595Z,18.24
2023-05-13T08:32:40.621Z,18.49
2023-05-13T08:33:40.553Z,18.31
2023-05-13T08:34:40.553Z,18.32
2023-05-13T08:35:40.896Z,18.48
2023-05-13T08:36:40.539Z,18.53
2023-05-13T08:37:40.551Z,18.48
2023-05-13T08:38:40.511Z,18.15
2023-05-13T08:39:40.534Z,18.25
2023-05-13T08:40:40.590Z,17.98
2023-05-13T08:41:40.645Z,17.87
2023-05-13T08:42:40.691Z,17.97
2023-05-13T08:43:40.723Z,18.16
2023-05-13T08:44:40.764Z,17.94
2023-05-13T08:45:40.775Z,17.60
2023-05-13T08:46:40.760Z,17.87
2023-05-13T08:47:40.825Z,18.13
2023-05-13T08:48:40.869Z,17.94
2023-05-13T08:49:40.853Z,17.97
2023-05-13T08:50:40.903Z,17.90
2023-05-13T08:51:40.912Z,18.13
2023-05-13T08:52:40.948Z,18.25
2023-05-13T08:53:40.984Z,18.05
2023-05-13T08:54:41.044Z,17.99
2023-05-13T08:55:41.067Z,18.09
2023-05-13T08:56:41.108Z,18.25
2023-05-13T08:57:41.167Z,17.94
2023-05-13T08:58:41.200Z,18.11
2023-05-13T08:59:41.231Z,18.35
2023-05-13T09:00:41.271Z,18.48
2023-05-13T09:01:41.350Z,18.46
2023-05-13T09:02:41.380Z,18.43
2023-05-13T09:03:41.419Z,18.33
2023-05-13T09:04:41.567Z,18.38
2023-05-13T09:05:41.654Z,18.21
2023-05-13T09:06:41.571Z,18.28
2023-05-13T09:07:41.595Z,17.82
2023-05-13T09:08:41.628Z,18.11
2023-05-13T09:09:42.617Z,17.68
2023-05-13T09:10:41.673Z,17.71
2023-05-13T09:11:44.539Z,18.04
2023-05-13T09:12:41.671Z,18.04
2023-05-13T09:13:41.674Z,17.91
2023-05-13T09:14:41.701Z,18.27
2023-05-13T09:15:41.654Z,18.15
2023-05-13T09:16:41.638Z,18.08
2023-05-13T09:17:41.680Z,18.28
2023-05-13T09:18:41.745Z,18.27
2023-05-13T09:19:41.761Z,17.90
2023-05-13T09:20:41.624Z,17.71
2023-05-13T09:21:41.625Z,17.58
2023-05-13T09:22:41.608Z,17.77
2023-05-13T09:23:41.589Z,18.09
2023-05-13T09:24:41.607Z,18.18
2023-05-13T09:25:41.581Z,18.15
2023-05-13T09:26:41.557Z,17.95
2023-05-13T09:27:41.559Z,17.87
2023-05-13T09:28:41.548Z,18.09
2023-05-13T09:29:41.552Z,18.11
2023-05-13T09:30:43.309Z,18.08
2023-05-13T09:31:41.678Z,18.25
2023-05-13T09:32:41.534Z,18.02
2023-05-13T09:33:41.526Z,18.13
2023-05-13T09:34:41.548Z,18.33
2023-05-13T09:35:41.514Z,18.33
2023-05-13T09:36:41.496Z,18.60
2023-05-13T09:37:41.488Z,18.39
2023-05-13T09:38:41.472Z,18.46
2023-05-13T09:39:41.774Z,18.18
2023-05-13T09:40:41.501Z,17.67
2023-05-13T09:41:41.467Z,17.87
2023-05-13T09:42:41.442Z,17.91
2023-05-13T09:43:41.434Z,18.04
2023-05-13T09:44:41.449Z,17.92
2023-05-13T09:45:41.443Z,17.81
2023-05-13T09:46:41.447Z,17.81
2023-05-13T09:47:41.452Z,17.95
2023-05-13T09:48:41.433Z,17.78
2023-05-13T09:49:41.419Z,17.81
2023-05-13T09:50:41.413Z,17.91
2023-05-13T09:51:41.379Z,17.99
2023-05-13T09:52:41.389Z,18.15
2023-05-13T09:53:41.432Z,18.15
2023-05-13T09:54:41.352Z,18.13
2023-05-13T09:55:41.361Z,18.09
2023-05-13T09:56:41.374Z,18.04
2023-05-13T09:57:41.362Z,17.95
2023-05-13T09:58:41.335Z,17.85
2023-05-13T09:59:41.345Z,18.05
2023-05-13T10:00:41.575Z,18.04
2023-05-13T10:01:41.381Z,18.19
2023-05-13T10:02:41.412Z,18.22
2023-05-13T10:03:41.361Z,18.08
2023-05-13T10:04:41.317Z,17.95
2023-05-13T10:05:41.297Z,18.04
2023-05-13T10:06:41.283Z,18.19
2023-05-13T10:07:41.296Z,17.97
2023-05-13T10:08:41.287Z,18.02
2023-05-13T10:09:41.267Z,18.22
2023-05-13T10:10:41.322Z,17.99
2023-05-13T10:11:41.347Z,18.08
2023-05-13T10:12:41.423Z,17.73
2023-05-13T10:13:41.415Z,17.82
2023-05-13T10:14:41.424Z,17.68
2023-05-13T10:15:41.446Z,17.63
2023-05-13T10:16:41.549Z,17.92
2023-05-13T10:17:41.543Z,17.84
2023-05-13T10:18:41.583Z,17.90
2023-05-13T10:19:41.637Z,17.97
2023-05-13T10:20:41.619Z,17.67
2023-05-13T10:21:41.637Z,17.95
2023-05-13T10:22:41.657Z,18.13
2023-05-13T10:23:41.697Z,18.46
2023-05-13T10:24:41.764Z,18.79
2023-05-13T10:25:41.844Z,18.80
2023-05-13T10:26:41.851Z,18.82
2023-05-13T10:27:41.876Z,18.38
2023-05-13T10:28:41.919Z,18.52
2023-05-13T10:29:41.951Z,18.69
2023-05-13T10:30:42.019Z,18.35
2023-05-13T10:31:42.083Z,18.55
2023-05-13T10:32:42.157Z,18.72
2023-05-13T10:33:42.122Z,18.66
2023-05-13T10:34:42.162Z,18.33
2023-05-13T10:36:42.237Z,18.27
2023-05-13T10:37:42.268Z,18.45
2023-05-13T10:38:42.307Z,18.38
2023-05-13T10:39:42.335Z,18.27
2023-05-13T10:40:42.393Z,18.25
2023-05-13T10:41:42.420Z,18.28
2023-05-13T10:42:42.445Z,18.24
2023-05-13T10:43:42.483Z,17.98
2023-05-13T10:44:42.534Z,18.29
2023-05-13T10:45:42.623Z,18.13
2023-05-13T10:46:42.712Z,18.02
2023-05-13T10:47:42.716Z,18.15
2023-05-13T10:48:42.735Z,18.73
2023-05-13T10:49:42.776Z,18.52
2023-05-13T10:50:42.840Z,18.56
2023-05-13T10:51:42.866Z,18.59
2023-05-13T10:52:42.911Z,18.73
2023-05-13T10:53:42.973Z,18.59
2023-05-13T10:54:43.015Z,18.67
2023-05-13T10:55:43.024Z,18.87
2023-05-13T10:56:43.049Z,18.99
2023-05-13T10:57:43.067Z,18.91
2023-05-13T10:58:43.109Z,18.94
2023-05-13T10:59:43.163Z,18.77
2023-05-13T11:00:43.183Z,18.96
2023-05-13T11:01:43.464Z,18.76
2023-05-13T11:02:43.291Z,18.83
2023-05-13T11:03:43.293Z,19.07
2023-05-13T11:04:43.241Z,18.86
2023-05-13T11:05:43.298Z,18.76
2023-05-13T11:06:43.328Z,19.03
2023-05-13T11:07:43.343Z,19.20
2023-05-13T11:08:43.364Z,19.03
2023-05-13T11:09:43.366Z,19.15
2023-05-13T11:10:43.386Z,19.18
2023-05-13T11:11:43.405Z,19.45
2023-05-13T11:12:43.464Z,19.00
2023-05-13T11:13:43.441Z,19.09
2023-05-13T11:14:43.454Z,19.24
2023-05-13T11:15:43.534Z,19.17
2023-05-13T11:16:43.643Z,19.09
2023-05-13T11:17:43.597Z,19.17
2023-05-13T11:18:43.613Z,19.17
2023-05-13T11:19:43.577Z,19.09
2023-05-13T11:20:52.068Z,19.35
2023-05-13T11:21:44.586Z,19.60
2023-05-13T11:22:43.600Z,19.60
2023-05-13T11:23:43.571Z,19.64
2023-05-13T11:24:43.567Z,19.66
2023-05-13T11:25:43.577Z,20.16
2023-05-13T11:26:43.572Z,19.85
2023-05-13T11:27:43.544Z,19.82
2023-05-13T11:28:43.578Z,19.35
2023-05-13T11:29:43.540Z,19.62
2023-05-13T11:30:43.551Z,19.89
2023-05-13T11:31:43.691Z,19.64
2023-05-13T11:32:43.555Z,19.48
2023-05-13T11:33:43.506Z,19.30
2023-05-13T11:34:43.513Z,19.99
2023-05-13T11:35:43.518Z,20.11
2023-05-13T11:36:43.531Z,20.08
2023-05-13T11:37:43.557Z,19.86
2023-05-13T11:38:43.596Z,19.82
2023-05-13T11:39:43.622Z,20.17
2023-05-13T11:40:43.665Z,20.08
2023-05-13T11:41:43.697Z,20.37
2023-05-13T11:42:43.733Z,20.47
2023-05-13T11:43:43.791Z,20.67
2023-05-13T11:44:43.792Z,21.19
2023-05-13T11:45:43.863Z,21.15
2023-05-13T11:46:44.627Z,21.16
2023-05-13T11:47:43.962Z,20.91
2023-05-13T11:48:43.909Z,21.01
2023-05-13T11:49:43.916Z,20.97
2023-05-13T11:50:44.161Z,21.01
2023-05-13T11:51:43.945Z,21.18
2023-05-13T11:52:43.971Z,21.42
2023-05-13T11:53:44.003Z,21.75
2023-05-13T11:54:44.092Z,22.17
2023-05-13T11:55:44.129Z,21.86
2023-05-13T11:56:44.127Z,21.26
2023-05-13T11:57:44.130Z,20.95
2023-05-13T11:58:44.163Z,21.92
2023-05-13T11:59:48.285Z,21.85
2023-05-13T12:00:46.511Z,21.89
2023-05-13T12:01:44.330Z,21.90
2023-05-13T12:02:44.472Z,21.99
2023-05-13T12:03:44.370Z,21.66
2023-05-13T12:04:44.475Z,21.63
2023-05-13T12:05:44.763Z,21.48
2023-05-13T12:06:44.452Z,21.41
2023-05-13T12:07:44.457Z,21.19
2023-05-13T12:08:44.496Z,21.11
2023-05-13T12:09:44.565Z,21.26
2023-05-13T12:10:44.558Z,21.39
2023-05-13T12:11:44.558Z,21.39
2023-05-13T12:12:44.627Z,20.93
2023-05-13T12:13:44.639Z,20.66
2023-05-13T12:14:44.665Z,20.88
2023-05-13T12:15:44.742Z,21.52
2023-05-13T12:16:44.739Z,21.77
2023-05-13T12:17:44.853Z,21.92
2023-05-13T12:18:44.813Z,22.13
2023-05-13T12:19:44.852Z,22.21
2023-05-13T12:20:44.869Z,22.21
2023-05-13T12:21:44.892Z,22.13
2023-05-13T12:22:44.964Z,22.47
2023-05-13T12:23:44.998Z,22.36
2023-05-13T12:24:45.045Z,22.08
2023-05-13T12:25:45.185Z,22.18
2023-05-13T12:26:45.230Z,22.04
2023-05-13T12:27:45.150Z,21.63
2023-05-13T12:28:45.202Z,21.77
2023-05-13T12:29:45.235Z,21.85
2023-05-13T12:30:45.295Z,21.53
2023-05-13T12:31:45.340Z,21.60
2023-05-13T12:32:47.208Z,21.55
2023-05-13T12:33:45.399Z,21.83
2023-05-13T12:34:45.425Z,21.56
2023-05-13T12:35:45.477Z,21.49
2023-05-13T12:36:45.548Z,21.70
2023-05-13T12:37:45.562Z,21.70
2023-05-13T12:38:45.612Z,21.72
2023-05-13T12:39:45.626Z,21.92
2023-05-13T12:40:45.685Z,21.86
2023-05-13T12:41:45.693Z,22.55
2023-05-13T12:42:45.742Z,23.01
2023-05-13T12:43:45.773Z,23.53
2023-05-13T12:44:45.837Z,23.19
2023-05-13T12:45:45.834Z,23.08
2023-05-13T12:46:45.900Z,23.08
2023-05-13T12:47:45.882Z,23.15
2023-05-13T12:48:45.892Z,22.98
2023-05-13T12:49:45.902Z,22.48
2023-05-13T12:50:45.944Z,22.58
2023-05-13T12:51:45.901Z,22.31
2023-05-13T12:52:45.951Z,21.90
2023-05-13T12:53:45.983Z,22.10
2023-05-13T12:54:46.064Z,22.11